Time;durP1;ratioP1;P1;durP2;ratioP2;P2;SDS_P1;SDS_P2;PMS_P1;PMS_P2;Temp;Humidity;BMP_temperature;BMP_pressure;BME280_temperature;BME280_humidity;BME280_pressure;Samples;Min_cycle;Max_cycle;Signal;HPM_P1;HPM_P2
2023/03/19 00:01:55;;;;;;;22.00;19.63;;;9.50;99.90;;;;;;5017544;28;20045;-79
2023/03/19 00:04:23;;;;;;;21.27;19.17;;;9.50;99.90;;;;;;5026147;28;20047;-80
2023/03/19 00:06:49;;;;;;;21.60;19.40;;;9.60;99.90;;;;;;5027704;28;21766;-80
2023/03/19 00:09:14;;;;;;;23.17;20.77;;;9.60;99.90;;;;;;5033588;28;20037;-79
2023/03/19 00:11:41;;;;;;;23.38;20.88;;;9.60;99.90;;;;;;5024647;28;20044;-79
2023/03/19 00:14:06;;;;;;;23.77;20.40;;;9.60;99.90;;;;;;5023909;28;20040;-80
2023/03/19 00:16:32;;;;;;;23.60;21.00;;;9.60;99.90;;;;;;5048783;28;20041;-80
2023/03/19 00:18:57;;;;;;;23.05;20.75;;;9.60;99.90;;;;;;5017646;28;20033;-80
2023/03/19 00:21:23;;;;;;;24.00;21.40;;;9.60;99.90;;;;;;5017413;28;20123;-80
2023/03/19 00:23:49;;;;;;;23.85;21.35;;;9.60;99.90;;;;;;5019026;28;20430;-79
2023/03/19 00:26:14;;;;;;;25.45;22.75;;;9.60;99.90;;;;;;5025123;28;20169;-80
2023/03/19 00:28:40;;;;;;;24.58;22.02;;;9.60;99.90;;;;;;5030435;28;20078;-80
2023/03/19 00:31:11;;;;;;;25.67;23.08;;;9.70;99.90;;;;;;5019340;28;20068;-80
2023/03/19 00:33:37;;;;;;;23.30;20.80;;;9.60;99.90;;;;;;5020604;28;20051;-80
2023/03/19 00:36:04;;;;;;;24.13;21.17;;;9.70;99.90;;;;;;5035576;28;20125;-80
2023/03/19 00:38:40;;;;;;;23.13;20.63;;;9.70;99.90;;;;;;5038587;23;20049;-78
2023/03/19 00:41:17;;;;;;;23.08;20.70;;;9.70;99.90;;;;;;5011934;28;20029;-78
2023/03/19 00:43:53;;;;;;;22.48;20.17;;;9.70;99.90;;;;;;5001668;28;20116;-78
2023/03/19 00:51:03;;;;;;;24.25;20.15;;;9.70;99.90;;;;;;4988191;28;20281;-78
2023/03/19 00:54:01;;;;;;;;;;;;;;;;;;;;;
2023/03/19 00:57:01;;;;;;;19.23;17.23;;;9.70;99.90;;;;;;4969516;28;20452;-78
2023/03/19 00:59:54;;;;;;;19.67;17.63;;;9.70;99.90;;;;;;4945972;28;20081;-78
2023/03/19 01:02:32;;;;;;;17.00;15.25;;;9.70;99.90;;;;;;4969189;28;20097;-78
2023/03/19 01:05:20;;;;;;;15.05;13.45;;;9.70;99.90;;;;;;4956015;28;20042;-78
2023/03/19 01:07:53;;;;;;;16.77;12.93;;;9.80;99.90;;;;;;4971846;28;20042;-78
2023/03/19 01:10:28;;;;;;;12.35;10.68;;;9.80;99.90;;;;;;4967406;28;20412;-78
2023/03/19 01:13:01;;;;;;;11.40;10.23;;;9.80;99.90;;;;;;4936778;28;20472;-78
2023/03/19 01:15:28;;;;;;;12.48;9.52;;;9.80;99.90;;;;;;4988591;28;20048;-78
2023/03/19 01:18:01;;;;;;;10.80;9.32;;;9.80;99.90;;;;;;4996657;28;20037;-78
2023/03/19 01:20:28;;;;;;;9.30;8.40;;;9.80;99.90;;;;;;4997206;28;20439;-77
2023/03/19 01:22:55;;;;;;;8.68;7.78;;;9.80;99.90;;;;;;4995876;28;20151;-77
2023/03/19 01:25:22;;;;;;;8.15;7.35;;;9.80;99.90;;;;;;4988583;28;20130;-77
2023/03/19 01:27:55;;;;;;;7.22;6.50;;;9.80;99.90;;;;;;5013330;28;20041;-77
2023/03/19 01:30:21;;;;;;;8.02;6.50;;;9.80;99.90;;;;;;4997482;28;20045;-77
2023/03/19 01:32:47;;;;;;;6.88;6.13;;;9.70;99.90;;;;;;4983931;28;20041;-77
2023/03/19 01:35:16;;;;;;;7.03;6.07;;;9.70;99.90;;;;;;5000465;28;20037;-77
2023/03/19 01:37:43;;;;;;;7.22;5.68;;;9.70;99.90;;;;;;4998857;28;20037;-77
2023/03/19 01:40:15;;;;;;;6.38;5.70;;;9.70;99.90;;;;;;4998918;28;20043;-78
2023/03/19 01:43:12;;;;;;;7.10;5.80;;;9.70;99.90;;;;;;4999870;28;20045;-78
2023/03/19 01:45:40;;;;;;;7.18;5.50;;;9.70;99.90;;;;;;4999396;28;20107;-78
2023/03/19 01:48:18;;;;;;;6.10;5.22;;;9.70;99.90;;;;;;5000539;28;20488;-78
2023/03/19 01:50:45;;;;;;;6.28;5.55;;;9.70;99.90;;;;;;4999276;28;20087;-78
2023/03/19 01:53:13;;;;;;;6.72;6.00;;;9.70;99.90;;;;;;4995763;28;20034;-78
2023/03/19 01:55:40;;;;;;;5.95;5.13;;;9.70;99.90;;;;;;4999535;28;20103;-77
2023/03/19 01:58:07;;;;;;;5.68;5.18;;;9.60;99.90;;;;;;4999828;28;20108;-77
2023/03/19 02:00:34;;;;;;;5.68;4.95;;;9.60;99.90;;;;;;4999404;28;20200;-77
2023/03/19 02:03:01;;;;;;;6.82;5.22;;;9.60;99.90;;;;;;4999482;28;20044;-77
2023/03/19 02:05:28;;;;;;;8.60;6.18;;;9.50;99.90;;;;;;5015920;28;20041;-77
2023/03/19 02:08:00;;;;;;;6.18;5.35;;;9.50;99.90;;;;;;4980841;28;20040;-77
2023/03/19 02:10:27;;;;;;;6.80;5.00;;;9.40;99.90;;;;;;4977489;28;20487;-78
2023/03/19 02:12:57;;;;;;;5.75;5.15;;;9.50;99.90;;;;;;4999317;28;20033;-78
2023/03/19 02:15:26;;;;;;;6.18;5.35;;;9.40;99.90;;;;;;4999958;28;20448;-78
2023/03/19 02:17:55;;;;;;;5.95;5.43;;;9.40;99.90;;;;;;4999431;28;20041;-77
2023/03/19 02:20:50;;;;;;;6.00;5.40;;;9.30;99.90;;;;;;4990867;28;20076;-77
2023/03/19 02:23:31;;;;;;;6.00;5.40;;;9.40;99.90;;;;;;4996825;28;20491;-77
2023/03/19 02:26:09;;;;;;;6.75;5.30;;;9.40;99.90;;;;;;4999358;28;20045;-77
2023/03/19 02:28:39;;;;;;;6.28;4.88;;;9.40;99.90;;;;;;4996892;28;20026;-77
2023/03/19 02:31:12;;;;;;;5.68;5.00;;;9.40;99.90;;;;;;4995187;28;20835;-77
2023/03/19 02:33:39;;;;;;;5.93;5.13;;;9.50;99.90;;;;;;4998702;28;20073;-77
2023/03/19 02:36:09;;;;;;;5.82;5.00;;;9.50;99.90;;;;;;4998633;28;20048;-78
2023/03/19 02:38:38;;;;;;;7.53;6.07;;;9.50;99.90;;;;;;4997009;28;20037;-78
2023/03/19 02:41:07;;;;;;;6.45;4.45;;;9.50;99.90;;;;;;4997799;28;20045;-77
2023/03/19 02:43:38;;;;;;;5.35;4.78;;;9.50;99.90;;;;;;4998901;28;20508;-77
2023/03/19 02:46:10;;;;;;;5.78;4.40;;;9.50;99.90;;;;;;4997431;28;20499;-77
2023/03/19 02:48:37;;;;;;;5.15;4.65;;;9.50;99.90;;;;;;4997822;28;20037;-77
2023/03/19 02:51:06;;;;;;;5.25;4.75;;;9.40;99.90;;;;;;4998111;28;20029;-77
2023/03/19 02:53:33;;;;;;;5.85;5.05;;;9.30;99.90;;;;;;4998993;28;20106;-77
2023/03/19 02:56:03;;;;;;;6.38;4.80;;;9.20;99.90;;;;;;4998558;28;20541;-78
2023/03/19 02:58:29;;;;;;;5.90;5.18;;;9.20;99.90;;;;;;4996627;28;20051;-78
2023/03/19 03:00:55;;;;;;;5.90;4.80;;;9.20;99.90;;;;;;5013926;28;20037;-78
2023/03/19 03:03:22;;;;;;;6.10;4.50;;;9.10;99.90;;;;;;4998502;28;20491;-78
2023/03/19 03:05:49;;;;;;;6.85;4.78;;;9.10;99.90;;;;;;4998199;28;20120;-78
2023/03/19 03:08:16;;;;;;;6.13;5.13;;;9.00;99.90;;;;;;4997160;28;20029;-78
2023/03/19 03:10:45;;;;;;;6.18;5.13;;;8.90;99.90;;;;;;4999443;28;20554;-79
2023/03/19 03:13:17;;;;;;;6.20;5.57;;;8.80;99.90;;;;;;4997191;28;20071;-79
2023/03/19 03:15:43;;;;;;;7.93;5.63;;;8.90;99.90;;;;;;4990653;28;20076;-79
2023/03/19 03:18:10;;;;;;;6.32;5.35;;;8.90;99.90;;;;;;4998037;28;20584;-79
2023/03/19 03:20:37;;;;;;;6.97;6.28;;;8.80;99.90;;;;;;4997618;28;20041;-79
2023/03/19 03:23:06;;;;;;;6.80;5.63;;;8.80;99.90;;;;;;4998734;28;20514;-79
2023/03/19 03:25:32;;;;;;;6.90;6.20;;;8.90;99.90;;;;;;4992451;28;20042;-79
2023/03/19 03:28:01;;;;;;;7.05;6.28;;;8.90;99.90;;;;;;4997520;28;20500;-78
2023/03/19 03:30:27;;;;;;;9.35;6.57;;;8.90;99.90;;;;;;4997359;28;20132;-78
2023/03/19 03:32:53;;;;;;;6.93;6.00;;;9.00;99.90;;;;;;4998408;28;20043;-78
2023/03/19 03:35:21;;;;;;;7.82;6.82;;;9.00;99.90;;;;;;4998254;28;20503;-78
2023/03/19 03:37:50;;;;;;;7.90;6.93;;;9.00;99.90;;;;;;4997733;28;20033;-78
2023/03/19 03:40:16;;;;;;;9.00;7.25;;;9.10;99.90;;;;;;4996863;28;20164;-78
2023/03/19 03:42:45;;;;;;;7.45;6.50;;;9.20;99.90;;;;;;4989801;28;20482;-78
2023/03/19 03:45:13;;;;;;;7.13;6.43;;;9.10;99.90;;;;;;4998518;28;20041;-79
2023/03/19 03:47:39;;;;;;;8.25;6.57;;;9.20;99.90;;;;;;4997504;28;20034;-79
2023/03/19 03:50:09;;;;;;;8.07;7.28;;;9.20;99.90;;;;;;4995738;28;20037;-79
2023/03/19 03:52:36;;;;;;;9.35;7.20;;;9.20;99.90;;;;;;4998098;28;20041;-79
2023/03/19 03:55:02;;;;;;;8.02;7.22;;;9.20;99.90;;;;;;4998338;28;20458;-79
2023/03/19 03:57:28;;;;;;;10.80;8.45;;;9.20;99.90;;;;;;4997662;28;20037;-79
2023/03/19 03:59:54;;;;;;;11.70;9.07;;;9.20;99.90;;;;;;4997412;28;20091;-79
2023/03/19 04:02:20;;;;;;;10.18;8.18;;;9.20;99.90;;;;;;4997838;28;20041;-79
2023/03/19 04:04:46;;;;;;;11.00;8.60;;;9.20;99.90;;;;;;5013346;28;20573;-79
2023/03/19 04:07:22;;;;;;;9.15;8.05;;;9.20;99.90;;;;;;4996953;28;20037;-79
2023/03/19 04:09:51;;;;;;;11.50;9.10;;;9.10;99.90;;;;;;4997036;28;20072;-79
2023/03/19 04:12:17;;;;;;;9.98;8.70;;;9.20;99.90;;;;;;4997737;28;20056;-79
2023/03/19 04:14:48;;;;;;;10.23;8.68;;;9.10;99.90;;;;;;4997820;28;20041;-79
2023/03/19 04:17:16;;;;;;;11.27;9.05;;;9.20;99.90;;;;;;4996964;28;20127;-79
2023/03/19 04:19:42;;;;;;;10.93;8.70;;;9.20;99.90;;;;;;5012494;28;20587;-79
2023/03/19 04:22:08;;;;;;;10.23;9.20;;;9.10;99.90;;;;;;4997474;28;20052;-79
2023/03/19 04:24:34;;;;;;;9.57;8.48;;;9.10;99.90;;;;;;4997615;28;20045;-79
2023/03/19 04:27:00;;;;;;;9.43;7.80;;;9.10;99.90;;;;;;4998111;28;20551;-79
2023/03/19 04:29:26;;;;;;;9.68;8.13;;;9.00;99.90;;;;;;5012835;28;20042;-79
2023/03/19 04:31:51;;;;;;;9.00;8.00;;;9.00;99.90;;;;;;4997318;28;20071;-79
2023/03/19 04:34:20;;;;;;;8.48;7.57;;;9.00;99.90;;;;;;4997819;28;20136;-79
2023/03/19 04:36:52;;;;;;;8.88;7.88;;;9.00;99.90;;;;;;4998105;28;20352;-79
2023/03/19 04:39:24;;;;;;;8.57;7.68;;;8.90;99.90;;;;;;4998333;28;20041;-79
2023/03/19 04:41:50;;;;;;;9.55;7.57;;;8.90;99.90;;;;;;5002687;28;20047;-79
2023/03/19 04:44:16;;;;;;;9.20;7.80;;;8.80;99.90;;;;;;5015245;28;20120;-79
2023/03/19 04:46:44;;;;;;;8.88;7.97;;;8.70;99.90;;;;;;4998897;28;20117;-79
2023/03/19 04:49:11;;;;;;;7.95;7.15;;;8.60;99.90;;;;;;4996231;28;20088;-79
2023/03/19 04:51:47;;;;;;;9.52;8.63;;;8.50;99.90;;;;;;4996999;28;20048;-79
2023/03/19 04:54:13;;;;;;;8.77;7.88;;;8.30;99.90;;;;;;5012846;28;20056;-78
2023/03/19 04:56:39;;;;;;;10.10;7.90;;;8.30;99.90;;;;;;5013502;28;20045;-79
2023/03/19 04:59:09;;;;;;;9.45;8.48;;;8.30;99.90;;;;;;4995881;28;20045;-79
2023/03/19 05:01:35;;;;;;;9.15;8.25;;;8.20;99.90;;;;;;4992948;28;20046;-78
2023/03/19 05:04:01;;;;;;;10.60;9.43;;;8.10;99.90;;;;;;4996923;28;20377;-78
2023/03/19 05:06:31;;;;;;;10.13;9.10;;;8.10;99.90;;;;;;5016242;28;20033;-78
2023/03/19 05:08:57;;;;;;;9.60;8.68;;;8.10;99.90;;;;;;5016155;28;20041;-78
2023/03/19 05:11:23;;;;;;;11.05;9.25;;;8.10;99.90;;;;;;4999624;28;20040;-78
2023/03/19 05:13:49;;;;;;;10.85;9.75;;;8.10;99.90;;;;;;4989660;28;20050;-78
2023/03/19 05:16:17;;;;;;;10.25;8.68;;;8.00;99.90;;;;;;4998225;28;20108;-78
2023/03/19 05:18:43;;;;;;;10.40;9.30;;;8.00;99.90;;;;;;4997441;28;20049;-78
2023/03/19 05:21:14;;;;;;;10.93;9.05;;;8.00;99.90;;;;;;4997295;28;20529;-78
2023/03/19 05:23:41;;;;;;;10.30;9.20;;;8.00;99.90;;;;;;4999614;28;20051;-78
2023/03/19 05:26:10;;;;;;;11.07;9.88;;;7.90;99.90;;;;;;4995222;28;20045;-78
2023/03/19 05:28:36;;;;;;;12.02;9.45;;;7.90;99.90;;;;;;4998500;28;20049;-78
2023/03/19 05:31:10;;;;;;;11.25;10.05;;;7.80;99.90;;;;;;4999324;28;20042;-78
2023/03/19 05:33:36;;;;;;;11.13;9.85;;;7.80;99.90;;;;;;4998718;28;20052;-78
2023/03/19 05:36:09;;;;;;;11.73;10.02;;;7.70;99.90;;;;;;5000468;28;20037;-78
2023/03/19 05:38:35;;;;;;;12.90;10.20;;;7.70;99.90;;;;;;5000000;28;20054;-78
2023/03/19 05:41:20;;;;;;;14.07;10.15;;;7.60;99.90;;;;;;4991502;28;20114;-78
2023/03/19 05:43:48;;;;;;;12.57;10.80;;;7.60;99.90;;;;;;5015729;28;20116;-78
2023/03/19 05:46:14;;;;;;;11.75;10.48;;;7.50;99.90;;;;;;4999761;28;20041;-78
2023/03/19 05:48:39;;;;;;;12.40;10.55;;;7.50;99.90;;;;;;4999969;28;20063;-78
2023/03/19 05:51:06;;;;;;;13.77;12.25;;;7.40;99.90;;;;;;4986620;28;20463;-78
2023/03/19 05:53:35;;;;;;;14.98;11.77;;;7.40;99.90;;;;;;4998404;28;20081;-78
2023/03/19 05:56:08;;;;;;;14.30;12.07;;;7.30;99.90;;;;;;4999967;28;20069;-78
2023/03/19 05:58:39;;;;;;;14.20;12.38;;;7.30;99.90;;;;;;5000182;28;20352;-78
2023/03/19 06:01:10;;;;;;;15.77;12.32;;;7.30;99.90;;;;;;4992892;28;20041;-78
2023/03/19 06:03:39;;;;;;;15.75;13.00;;;7.30;99.90;;;;;;4997572;28;20139;-78
2023/03/19 06:06:06;;;;;;;16.30;13.48;;;7.30;99.90;;;;;;4994323;28;20396;-78
2023/03/19 06:08:37;;;;;;;18.00;13.52;;;7.30;99.90;;;;;;4999468;28;20412;-78
2023/03/19 06:11:03;;;;;;;19.80;14.00;;;7.30;99.90;;;;;;5015348;28;20073;-78
2023/03/19 06:13:37;;;;;;;16.60;13.48;;;7.20;99.90;;;;;;5015483;28;20065;-78
2023/03/19 06:16:03;;;;;;;16.90;13.93;;;7.20;99.90;;;;;;4998265;28;20125;-78
2023/03/19 06:18:29;;;;;;;17.13;13.43;;;7.20;99.90;;;;;;4999575;28;20065;-78
2023/03/19 06:20:55;;;;;;;20.17;14.10;;;7.20;99.90;;;;;;4992088;28;20042;-78
2023/03/19 06:23:26;;;;;;;18.15;14.32;;;7.20;99.90;;;;;;4999497;28;20038;-78
2023/03/19 06:25:55;;;;;;;22.58;16.23;;;7.10;99.90;;;;;;4998462;28;20107;-78
2023/03/19 06:28:31;;;;;;;20.55;15.38;;;7.10;99.90;;;;;;4997639;28;20041;-78
2023/03/19 06:31:00;;;;;;;21.05;15.98;;;7.20;99.90;;;;;;4986180;28;20036;-78
2023/03/19 06:33:32;;;;;;;24.48;17.42;;;7.10;99.90;;;;;;5000002;28;20128;-78
2023/03/19 06:35:58;;;;;;;24.92;16.05;;;7.10;99.90;;;;;;4998869;28;20528;-78
2023/03/19 06:38:25;;;;;;;23.25;17.23;;;7.10;99.90;;;;;;4999052;28;20064;-78
2023/03/19 06:40:51;;;;;;;24.08;18.13;;;7.10;99.90;;;;;;4999550;28;20068;-78
2023/03/19 06:43:20;;;;;;;26.60;18.88;;;7.10;99.90;;;;;;4999203;28;20049;-78
2023/03/19 06:45:48;;;;;;;27.23;17.63;;;7.20;99.90;;;;;;4997907;28;20033;-78
2023/03/19 06:48:14;;;;;;;26.85;18.45;;;7.20;99.90;;;;;;4987905;28;20034;-78
2023/03/19 06:50:45;;;;;;;28.40;19.65;;;7.20;99.90;;;;;;4999711;28;20049;-78
2023/03/19 06:53:14;;;;;;;31.20;20.40;;;7.20;99.90;;;;;;4998578;28;20091;-78
2023/03/19 06:55:40;;;;;;;32.10;21.02;;;7.20;99.90;;;;;;4998900;28;20049;-78
2023/03/19 06:58:06;;;;;;;33.70;22.63;;;7.40;99.90;;;;;;4998930;28;20045;-78
2023/03/19 07:00:41;;;;;;;33.20;21.77;;;7.40;99.90;;;;;;4996070;28;20122;-78
2023/03/19 07:03:12;;;;;;;36.78;23.30;;;7.50;99.90;;;;;;4998796;28;20388;-78
2023/03/19 07:05:44;;;;;;;35.33;22.17;;;7.60;99.90;;;;;;5000175;28;20245;-78
2023/03/19 07:08:11;;;;;;;35.33;22.92;;;7.70;99.90;;;;;;4998022;28;20227;-78
2023/03/19 07:10:42;;;;;;;36.58;25.08;;;7.90;99.90;;;;;;4999801;28;20049;-78
2023/03/19 07:13:14;;;;;;;35.45;23.35;;;8.10;99.90;;;;;;5015262;28;20041;-78
2023/03/19 07:15:42;;;;;;;36.45;24.52;;;8.20;99.90;;;;;;5015394;28;20131;-78
2023/03/19 07:18:10;;;;;;;31.83;23.33;;;8.30;99.90;;;;;;4995091;28;20072;-79
2023/03/19 07:21:06;;;;;;;32.15;22.52;;;8.30;99.90;;;;;;5001124;28;20056;-79
2023/03/19 07:23:46;;;;;;;31.20;22.98;;;8.30;99.90;;;;;;5013898;28;20465;-81
2023/03/19 07:26:12;;;;;;;33.90;23.67;;;8.40;99.90;;;;;;5008564;28;20045;-79
2023/03/19 07:28:51;;;;;;;;;;;;;;;;;;;;;
2023/03/19 07:31:26;;;;;;;39.42;26.17;;;8.50;99.90;;;;;;5012791;28;20049;-79
2023/03/19 07:33:52;;;;;;;38.67;26.17;;;8.70;99.90;;;;;;4998685;28;20037;-78
2023/03/19 07:36:20;;;;;;;35.67;26.75;;;8.80;99.90;;;;;;5002091;28;20102;-79
2023/03/19 07:38:50;;;;;;;38.30;27.05;;;8.90;99.90;;;;;;5004562;28;20547;-78
2023/03/19 07:41:16;;;;;;;35.65;25.33;;;9.00;99.90;;;;;;5004095;28;20037;-78
2023/03/19 07:43:41;;;;;;;35.88;25.35;;;9.00;99.90;;;;;;4995754;28;20042;-75
2023/03/19 07:46:07;;;;;;;35.45;24.90;;;9.20;99.90;;;;;;4985314;28;20059;-76
2023/03/19 07:48:33;;;;;;;37.33;25.95;;;9.30;99.90;;;;;;5017422;28;20065;-78
2023/03/19 07:50:59;;;;;;;39.25;26.00;;;9.40;99.90;;;;;;5002461;28;20045;-78
2023/03/19 07:53:25;;;;;;;38.80;25.98;;;9.60;99.90;;;;;;5002983;28;20063;-78
2023/03/19 07:55:53;;;;;;;35.80;25.65;;;9.90;99.90;;;;;;5009176;28;20099;-78
2023/03/19 07:58:19;;;;;;;34.85;24.88;;;10.20;99.90;;;;;;5007887;28;20102;-79
2023/03/19 08:00:45;;;;;;;30.20;23.33;;;10.50;99.90;;;;;;4981182;28;20041;-78
2023/03/19 08:03:14;;;;;;;26.95;20.25;;;10.60;99.90;;;;;;4980380;28;20096;-77
2023/03/19 08:05:40;;;;;;;22.63;18.70;;;10.60;99.90;;;;;;4999799;28;20037;-77
2023/03/19 08:08:06;;;;;;;22.67;19.50;;;10.60;99.90;;;;;;5011999;28;20037;-77
2023/03/19 08:10:32;;;;;;;22.48;17.40;;;10.50;99.90;;;;;;4998129;28;20041;-77
2023/03/19 08:12:58;;;;;;;18.83;16.73;;;10.40;99.90;;;;;;4998343;28;20037;-76
2023/03/19 08:15:23;;;;;;;20.30;17.08;;;10.40;99.90;;;;;;4997579;28;20125;-78
2023/03/19 08:17:57;;;;;;;21.38;16.95;;;10.40;99.90;;;;;;4998248;28;20088;-78
2023/03/19 08:20:23;;;;;;;21.35;17.90;;;10.30;99.90;;;;;;4997546;28;20037;-77
2023/03/19 08:22:49;;;;;;;23.33;18.80;;;10.30;99.90;;;;;;4998181;28;20084;-77
2023/03/19 08:25:15;;;;;;;22.48;19.85;;;10.20;99.90;;;;;;4997947;28;20034;-77
2023/03/19 08:27:43;;;;;;;25.05;20.52;;;10.30;99.90;;;;;;4998689;28;20462;-78
2023/03/19 08:30:12;;;;;;;23.67;19.88;;;10.40;99.90;;;;;;4998441;28;20526;-78
2023/03/19 08:32:37;;;;;;;22.73;19.80;;;10.60;99.90;;;;;;4998186;28;20069;-78
2023/03/19 08:35:05;;;;;;;21.23;18.75;;;10.70;99.90;;;;;;5013618;28;20060;-78
2023/03/19 08:37:30;;;;;;;21.95;19.65;;;10.80;99.90;;;;;;4997832;28;20045;-77
2023/03/19 08:39:59;;;;;;;22.05;19.38;;;10.70;99.90;;;;;;5001057;28;20049;-77
2023/03/19 08:42:24;;;;;;;20.77;18.30;;;10.80;99.90;;;;;;5000693;28;20049;-77
2023/03/19 08:44:50;;;;;;;19.90;17.15;;;11.00;99.90;;;;;;5003184;28;20064;-78
2023/03/19 08:47:16;;;;;;;20.38;17.60;;;11.20;99.90;;;;;;5002354;28;20437;-78
2023/03/19 08:49:41;;;;;;;19.08;17.02;;;11.30;99.90;;;;;;5018258;28;20037;-78
2023/03/19 08:52:08;;;;;;;19.42;16.52;;;11.30;99.90;;;;;;5001742;28;20041;-78
2023/03/19 08:54:34;;;;;;;18.77;16.55;;;11.40;99.90;;;;;;5002037;28;20140;-77
2023/03/19 08:57:02;;;;;;;18.02;15.98;;;11.30;99.90;;;;;;5018365;28;20492;-78
2023/03/19 08:59:28;;;;;;;18.35;15.68;;;11.30;99.90;;;;;;5036441;28;20103;-77
2023/03/19 09:01:54;;;;;;;18.42;15.95;;;11.20;99.90;;;;;;5001406;28;20037;-77
2023/03/19 09:04:20;;;;;;;19.48;17.40;;;11.20;99.90;;;;;;5001670;28;20148;-78
2023/03/19 09:06:50;;;;;;;20.60;18.38;;;11.30;99.90;;;;;;5000777;28;20045;-78
2023/03/19 09:09:19;;;;;;;16.88;15.15;;;11.50;99.90;;;;;;5001468;28;20111;-77
2023/03/19 09:11:45;;;;;;;15.25;13.63;;;11.80;99.90;;;;;;5017610;28;20034;-78
2023/03/19 09:14:12;;;;;;;16.60;14.90;;;11.70;99.90;;;;;;5002266;28;20124;-78
2023/03/19 09:16:42;;;;;;;16.92;14.60;;;11.60;99.90;;;;;;5017344;28;20052;-78
2023/03/19 09:19:08;;;;;;;17.48;15.50;;;11.50;99.90;;;;;;5001912;28;20037;-78
2023/03/19 09:21:34;;;;;;;17.38;15.23;;;11.50;99.90;;;;;;5018574;28;20073;-78
2023/03/19 09:24:00;;;;;;;16.40;14.70;;;11.50;99.90;;;;;;4997997;28;20045;-77
2023/03/19 09:26:25;;;;;;;19.00;16.25;;;11.40;99.90;;;;;;4999549;28;20037;-77
2023/03/19 09:28:51;;;;;;;16.98;15.18;;;11.40;99.90;;;;;;4998031;28;20033;-77
2023/03/19 09:31:17;;;;;;;17.67;15.45;;;11.40;99.90;;;;;;4996885;28;20065;-78
2023/03/19 09:35:05;;;;;;;;;;;;;;;;;;;;;
2023/03/19 09:37:39;;;;;;;18.48;16.42;;;11.30;99.90;;;;;;4970504;28;20053;-76
2023/03/19 09:40:06;;;;;;;18.35;16.38;;;11.20;99.90;;;;;;4964569;28;20035;-79
2023/03/19 09:42:59;;;;;;;18.85;16.95;;;11.00;99.90;;;;;;4990289;28;20053;-79
2023/03/19 09:45:34;;;;;;;17.70;15.80;;;10.90;99.90;;;;;;5000405;28;20408;-78
2023/03/19 09:48:17;;;;;;;19.63;17.52;;;10.90;99.90;;;;;;5001728;28;20041;-78
2023/03/19 09:50:47;;;;;;;19.63;17.63;;;10.90;99.90;;;;;;4990026;28;20044;-79
2023/03/19 09:53:47;;;;;;;19.80;17.70;;;10.90;99.90;;;;;;4983379;28;20046;-78
2023/03/19 09:56:24;;;;;;;19.40;17.37;;;10.90;99.90;;;;;;4981657;28;20045;-79
2023/03/19 09:58:51;;;;;;;19.42;17.38;;;10.90;99.90;;;;;;4997301;28;20774;-79
2023/03/19 10:01:29;;;;;;;19.92;17.80;;;11.00;99.90;;;;;;4994331;28;20037;-79
2023/03/19 10:04:33;;;;;;;19.10;17.20;;;11.00;99.90;;;;;;5003307;28;20567;-79
2023/03/19 10:07:12;;;;;;;19.70;17.50;;;11.00;99.90;;;;;;4994292;28;20073;-78
2023/03/19 10:10:04;;;;;;;19.60;17.50;;;11.20;99.90;;;;;;4999113;28;20037;-79
2023/03/19 10:12:58;;;;;;;19.80;17.52;;;11.30;99.90;;;;;;4998774;28;20034;-81
2023/03/19 10:15:31;;;;;;;18.63;15.75;;;11.60;99.90;;;;;;4993094;28;20044;-81
2023/03/19 10:18:24;;;;;;;16.95;15.15;;;11.70;99.90;;;;;;4981743;28;20038;-78
2023/03/19 10:21:33;;;;;;;17.10;15.30;;;11.90;99.90;;;;;;4985394;28;20119;-77
2023/03/19 10:24:12;;;;;;;15.10;13.52;;;11.90;99.90;;;;;;4992921;28;20041;-78
2023/03/19 10:26:38;;;;;;;16.45;14.75;;;12.00;99.90;;;;;;5000526;28;20037;-78
2023/03/19 10:29:13;;;;;;;17.08;14.90;;;12.10;99.90;;;;;;4999838;28;20045;-78
2023/03/19 10:31:46;;;;;;;16.90;15.20;;;12.70;99.90;;;;;;4992685;28;20050;-78
2023/03/19 10:34:43;;;;;;;15.00;13.48;;;13.10;99.90;;;;;;4997772;28;20396;-78
2023/03/19 10:37:19;;;;;;;15.00;13.55;;;13.40;99.90;;;;;;4987793;28;20133;-76
2023/03/19 10:39:47;;;;;;;15.77;14.27;;;13.70;99.90;;;;;;5007836;28;20037;-77
2023/03/19 10:42:40;;;;;;;14.73;13.07;;;13.90;99.90;;;;;;4998491;28;20089;-77
2023/03/19 10:45:27;;;;;;;15.32;13.85;;;13.90;99.90;;;;;;5002062;28;20038;-78
2023/03/19 10:47:57;;;;;;;15.27;13.70;;;14.40;99.90;;;;;;5001464;28;20068;-78
2023/03/19 10:50:52;;;;;;;15.18;13.68;;;14.90;99.90;;;;;;5001659;28;20408;-78
2023/03/19 10:53:18;;;;;;;14.50;12.82;;;15.50;99.90;;;;;;5002313;28;20070;-79
2023/03/19 10:55:47;;;;;;;13.80;12.40;;;15.90;99.90;;;;;;5001419;28;20041;-78
2023/03/19 10:58:21;;;;;;;14.52;12.98;;;15.80;99.90;;;;;;5012578;28;20044;-78
2023/03/19 11:00:56;;;;;;;13.57;12.13;;;15.90;99.90;;;;;;4999279;28;20419;-78
2023/03/19 11:03:36;;;;;;;13.60;12.20;;;15.70;99.90;;;;;;4999495;28;20045;-77
2023/03/19 11:06:22;;;;;;;14.73;12.52;;;15.40;99.90;;;;;;5000787;28;20120;-79
2023/03/19 11:09:20;;;;;;;14.18;12.50;;;15.30;99.90;;;;;;5001751;28;20037;-82
2023/03/19 11:11:52;;;;;;;14.20;12.70;;;15.50;99.90;;;;;;4994210;28;20029;-79
2023/03/19 11:14:24;;;;;;;14.30;12.80;;;15.90;99.90;;;;;;5010291;28;20042;-79
2023/03/19 11:17:12;;;;;;;15.53;13.93;;;16.00;99.90;;;;;;5016455;28;20045;-81
2023/03/19 11:19:41;;;;;;;14.82;13.13;;;16.70;99.90;;;;;;4988533;28;20072;-80
2023/03/19 11:22:07;;;;;;;14.55;13.05;;;16.80;99.90;;;;;;5002066;28;20053;-80
2023/03/19 11:24:41;;;;;;;12.70;11.32;;;16.60;99.90;;;;;;5018140;28;20408;-80
2023/03/19 11:27:10;;;;;;;13.70;12.30;;;16.60;99.90;;;;;;5002918;28;20495;-80
2023/03/19 11:29:41;;;;;;;13.93;12.52;;;16.80;99.90;;;;;;4996084;28;20037;-80
2023/03/19 11:32:22;;;;;;;12.80;11.50;;;16.80;99.90;;;;;;5003707;28;20092;-80
2023/03/19 11:35:05;;;;;;;13.20;11.80;;;16.10;99.90;;;;;;5000980;28;20049;-79
2023/03/19 11:37:42;;;;;;;13.68;12.15;;;15.90;99.90;;;;;;5001726;28;20120;-79
2023/03/19 11:40:36;;;;;;;14.25;12.77;;;15.60;99.90;;;;;;4999846;28;20139;-80
2023/03/19 11:43:17;;;;;;;;;;;15.40;99.90;;;;;;5013268;28;20045;-81
2023/03/19 11:45:58;;;;;;;14.00;12.65;;;15.70;99.90;;;;;;4999687;28;19917;-80
2023/03/19 11:48:45;;;;;;;14.10;12.70;;;16.20;99.90;;;;;;4994553;28;20042;-81
2023/03/19 11:51:19;;;;;;;13.02;11.75;;;17.20;99.90;;;;;;4998364;28;20454;-80
2023/03/19 11:54:03;;;;;;;13.48;12.07;;;18.00;99.90;;;;;;4999764;28;20065;-80
2023/03/19 11:56:41;;;;;;;14.25;12.85;;;17.90;99.90;;;;;;5002051;28;20045;-81
2023/03/19 11:59:44;;;;;;;12.20;11.00;;;17.60;99.90;;;;;;5001019;28;20412;-81
2023/03/19 12:02:32;;;;;;;12.75;11.35;;;18.40;99.90;;;;;;4996865;28;20101;-80
2023/03/19 12:05:19;;;;;;;12.98;11.57;;;19.10;99.90;;;;;;5010128;28;20038;-81
2023/03/19 12:08:10;;;;;;;12.60;10.85;;;18.40;99.90;;;;;;5000917;28;20076;-80
2023/03/19 12:10:54;;;;;;;13.18;11.40;;;17.30;99.90;;;;;;5008914;28;20124;-80
2023/03/19 12:14:00;;;;;;;13.40;11.25;;;17.50;99.90;;;;;;5003047;28;20072;-80
2023/03/19 12:16:46;;;;;;;12.48;11.18;;;18.20;99.90;;;;;;4994319;28;20045;-79
2023/03/19 12:19:18;;;;;;;13.23;11.73;;;18.10;99.90;;;;;;5018382;28;20560;-80
2023/03/19 12:22:26;;;;;;;13.40;11.67;;;18.00;99.90;;;;;;5002490;28;20081;-82
2023/03/19 12:25:58;;;;;;;13.82;12.30;;;18.40;99.90;;;;;;4982592;28;20052;-83
2023/03/19 12:29:27;;;;;;;13.25;11.75;;;17.60;99.90;;;;;;5007113;28;20550;-82
2023/03/19 12:32:12;;;;;;;13.75;12.30;;;17.50;99.90;;;;;;5010516;28;20468;-80
2023/03/19 12:34:52;;;;;;;13.85;12.38;;;17.80;99.90;;;;;;4997960;28;20037;-81
2023/03/19 12:37:46;;;;;;;15.15;13.07;;;17.80;99.90;;;;;;5001727;28;20045;-80
2023/03/19 12:40:12;;;;;;;13.63;11.55;;;18.30;99.90;;;;;;4996489;28;20230;-80
2023/03/19 12:42:44;;;;;;;13.43;12.00;;;19.00;99.90;;;;;;5015345;28;20041;-80
2023/03/19 12:45:28;;;;;;;13.82;11.45;;;19.70;99.90;;;;;;4998628;28;20139;-81
2023/03/19 12:47:57;;;;;;;;;;;20.10;99.90;;;;;;4998052;28;20051;-81
2023/03/19 12:50:26;;;;;;;15.40;12.25;;;20.00;99.90;;;;;;5019674;28;19917;-80
2023/03/19 12:52:57;;;;;;;14.40;12.90;;;19.70;99.90;;;;;;5003201;28;20150;-80
2023/03/19 12:55:43;;;;;;;14.20;12.70;;;19.70;99.90;;;;;;4999166;28;20061;-81
2023/03/19 12:58:24;;;;;;;13.30;11.93;;;20.00;99.90;;;;;;4987761;28;20129;-80
2023/03/19 13:01:02;;;;;;;15.23;13.60;;;20.10;99.90;;;;;;4995434;28;20037;-79
2023/03/19 13:03:39;;;;;;;14.30;12.65;;;20.20;99.90;;;;;;5001718;28;20037;-79
2023/03/19 13:06:16;;;;;;;14.05;12.30;;;20.50;99.90;;;;;;5008863;28;20034;-79
2023/03/19 13:09:06;;;;;;;15.20;13.32;;;20.40;99.90;;;;;;5016261;28;20037;-79
2023/03/19 13:12:06;;;;;;;16.00;14.13;;;20.10;99.90;;;;;;5042304;28;20089;-79
2023/03/19 13:14:50;;;;;;;14.88;13.27;;;20.60;99.90;;;;;;5015095;28;20503;-80
2023/03/19 13:17:26;;;;;;;;;;;20.90;99.90;;;;;;4996915;28;20099;-80